SBGR Airport Information

Runway Information
Runway 09L Length 12139 ft width 148 ft
Elevation 2445 ft Threshold 0 ft Heading 74
Runway 27R Length 12139 ft Width 148 ft
Elevation 2440 ft Threshold 0 ft Heading 254
Runway 09R Length 9843 ft width 148 ft
Elevation 2450 ft Threshold 0 ft Heading 74
Runway 27L Length 9843 ft Width 148 ft
Elevation 2445 ft Threshold 0 ft Heading 254
Airport Frequencies
Type APP Name SAO PAULO Frequency 119.8 MHZ
Type ATIS Name ATIS Frequency 127.75 MHZ
Type CLD Name CLNC DEL Frequency 121 MHZ
Type GND Name GND Frequency 121.7 MHZ
Type ILS: Name RWY 27L Frequency 111.1 MHZ
Type OPS Name SAO PAULO Frequency 122.5 MHZ
Type TWR Name TWR Frequency 118.4 MHZ
Airport Navaids
Type VOR-DME Name Bonsucesso Frequency 116000 KHZ
Type NDB Name Perus Frequency 220 KHZ
Airport Weather Information & NOTAM
ADDS - METARS form results

(0146 UTC 23 April 2018)
 
METAR text: SBGR 230100Z 10003KT CAVOK 18/17 Q1021
Conditions at: SBGR (GUARULHOS (CIV/M, BR) observed 0100 UTC 23 April 2018
Temperature: 18.0°C (64°F)
Dewpoint: 17.0°C (63°F) [RH = 94%]
Pressure (altimeter): 30.15 inches Hg (1021.0 mb)
Winds: from the E (100 degrees) at 3 MPH (3 knots; 1.6 m/s)
Visibility: 6 or more miles (10+ km)
Ceiling: ceiling and visibility are OK
Clouds: unknown
Weather: no significant weather observed at this time